Map

Track Data

SID SEASON NUMBER BASIN SUBBASIN NAME ISO_TIME NATURE LAT LON WMO_WIND WMO_PRES WMO_AGENCY TRACK_TYPE DIST2LAND LANDFALL IFLAG USA_AGENCY USA_ATCF_ID USA_LAT USA_LON USA_RECORD USA_STATUS USA_WIND USA_PRES USA_SSHS USA_R34_NE USA_R34_SE USA_R34_SW USA_R34_NW USA_R50_NE USA_R50_SE USA_R50_SW USA_R50_NW USA_R64_NE USA_R64_SE USA_R64_SW USA_R64_NW USA_POCI USA_ROCI USA_RMW USA_EYE TOKYO_LAT TOKYO_LON TOKYO_GRADE TOKYO_WIND TOKYO_PRES TOKYO_R50_DIR TOKYO_R50_LONG TOKYO_R50_SHORT TOKYO_R30_DIR TOKYO_R30_LONG TOKYO_R30_SHORT TOKYO_LAND CMA_LAT CMA_LON CMA_CAT CMA_WIND CMA_PRES HKO_LAT HKO_LON HKO_CAT HKO_WIND HKO_PRES NEWDELHI_LAT NEWDELHI_LON NEWDELHI_GRADE NEWDELHI_WIND NEWDELHI_PRES NEWDELHI_CI NEWDELHI_DP NEWDELHI_POCI REUNION_LAT REUNION_LON REUNION_TYPE REUNION_WIND REUNION_PRES REUNION_TNUM REUNION_CI REUNION_RMW REUNION_R34_NE REUNION_R34_SE REUNION_R34_SW REUNION_R34_NW REUNION_R50_NE REUNION_R50_SE REUNION_R50_SW REUNION_R50_NW REUNION_R64_NE REUNION_R64_SE REUNION_R64_SW REUNION_R64_NW BOM_LAT BOM_LON BOM_TYPE BOM_WIND BOM_PRES BOM_TNUM BOM_CI BOM_RMW BOM_R34_NE BOM_R34_SE BOM_R34_SW BOM_R34_NW BOM_R50_NE BOM_R50_SE BOM_R50_SW BOM_R50_NW BOM_R64_NE BOM_R64_SE BOM_R64_SW BOM_R64_NW BOM_ROCI BOM_POCI BOM_EYE BOM_POS_METHOD BOM_PRES_METHOD NADI_LAT NADI_LON NADI_CAT NADI_WIND NADI_PRES WELLINGTON_LAT WELLINGTON_LON WELLINGTON_WIND WELLINGTON_PRES DS824_LAT DS824_LON DS824_STAGE DS824_WIND DS824_PRES TD9636_LAT TD9636_LON TD9636_STAGE TD9636_WIND TD9636_PRES TD9635_LAT TD9635_LON TD9635_WIND TD9635_PRES TD9635_ROCI NEUMANN_LAT NEUMANN_LON NEUMANN_CLASS NEUMANN_WIND NEUMANN_PRES MLC_LAT MLC_LON MLC_CLASS MLC_WIND MLC_PRES USA_GUST BOM_GUST BOM_GUST_PER REUNION_GUST REUNION_GUST_PER USA_SEAHGT USA_SEARAD_NE USA_SEARAD_SE USA_SEARAD_SW USA_SEARAD_NW STORM_SPEED STORM_DIR
1978255N30280 1978 90 NA NA HOPE 1978-09-12 00:00:00 SS 29.8000 -80.0000 25 1012 hurdat_atl main 115 115 O_____________ hurdat_atl AL151978 29.8000 -80.0000 SD 25 1012 -2 8 53
1978255N30280 1978 90 NA NA HOPE 1978-09-12 03:00:00 SS 30.0328 -79.6452 main 159 159 P_____________ AL151978 30.0328 -79.6452 SD 25 1011 -2 8 51
1978255N30280 1978 90 NA NA HOPE 1978-09-12 06:00:00 SS 30.3000 -79.3000 25 hurdat_atl main 198 198 I_____________ hurdat_atl AL151978 30.3000 -79.3000 SD 25 1011 -2 8 45
1978255N30280 1978 90 NA NA HOPE 1978-09-12 09:00:00 SS 30.6148 -78.9650 main 229 225 P_____________ AL151978 30.6148 -78.9650 SD 25 1010 -2 9 45
1978255N30280 1978 90 NA NA HOPE 1978-09-12 12:00:00 SS 30.9000 -78.6000 25 1010 hurdat_atl main 231 227 O_____________ hurdat_atl AL151978 30.9000 -78.6000 SD 25 1010 -2 8 54
1978255N30280 1978 90 NA NA HOPE 1978-09-12 15:00:00 SS 31.1022 -78.1876 main 238 238 P_____________ AL151978 31.1022 -78.1876 SD 25 1010 -2 8 69
1978255N30280 1978 90 NA NA HOPE 1978-09-12 18:00:00 SS 31.2000 -77.7000 25 hurdat_atl main 256 256 I_____________ hurdat_atl AL151978 31.2000 -77.7000 SD 25 1010 -2 9 86
1978255N30280 1978 90 NA NA HOPE 1978-09-12 21:00:00 SS 31.1649 -77.1293 main 295 295 P_____________ AL151978 31.1649 -77.1293 SD 25 1010 -2 10 96
1978255N30280 1978 90 NA NA HOPE 1978-09-13 00:00:00 SS 31.1000 -76.5000 25 1010 hurdat_atl main 342 342 O_____________ hurdat_atl AL151978 31.1000 -76.5000 SD 25 1010 -2 11 93
1978255N30280 1978 90 NA NA HOPE 1978-09-13 03:00:00 SS 31.0976 -75.8346 main 374 374 P_____________ AL151978 31.0976 -75.8346 SD 25 1009 -2 11 85
1978255N30280 1978 90 NA NA HOPE 1978-09-13 06:00:00 SS 31.2000 -75.2000 25 hurdat_atl main 399 394 I_____________ hurdat_atl AL151978 31.2000 -75.2000 SD 25 1009 -2 11 69
1978255N30280 1978 90 NA NA HOPE 1978-09-13 09:00:00 SS 31.4694 -74.6852 main 394 382 P_____________ AL151978 31.4694 -74.6852 SD 25 1009 -2 10 55
1978255N30280 1978 90 NA NA HOPE 1978-09-13 12:00:00 SS 31.8000 -74.2000 25 1009 hurdat_atl main 387 383 O_____________ hurdat_atl AL151978 31.8000 -74.2000 SD 25 1009 -2 11 56
1978255N30280 1978 90 NA NA HOPE 1978-09-13 15:00:00 SS 32.0574 -73.6497 main 395 395 P_____________ AL151978 32.0574 -73.6497 SD 25 1008 -2 11 62
1978255N30280 1978 90 NA NA HOPE 1978-09-13 18:00:00 SS 32.3000 -73.1000 25 hurdat_atl main 412 412 I_____________ hurdat_atl AL151978 32.3000 -73.1000 SD 25 1008 -2 10 60
1978255N30280 1978 90 NA NA HOPE 1978-09-13 21:00:00 SS 32.5719 -72.6149 main 426 426 P_____________ AL151978 32.5719 -72.6149 SD 25 1008 -2 10 59
1978255N30280 1978 90 NA NA HOPE 1978-09-14 00:00:00 SS 32.8000 -72.1000 25 1008 hurdat_atl main 452 452 O_____________ hurdat_atl AL151978 32.8000 -72.1000 SD 25 1008 -2 10 69
1978255N30280 1978 90 NA NA HOPE 1978-09-14 03:00:00 SS 32.9213 -71.5318 main 488 488 P_____________ AL151978 32.9213 -71.5318 SD 25 1008 -2 11 80
1978255N30280 1978 90 NA NA HOPE 1978-09-14 06:00:00 SS 33.0000 -70.8000 25 hurdat_atl main 531 531 I_____________ hurdat_atl AL151978 33.0000 -70.8000 SD 25 1008 -2 14 83
1978255N30280 1978 90 NA NA HOPE 1978-09-14 09:00:00 SS 33.1071 -69.8401 main 601 601 P_____________ AL151978 33.1071 -69.8401 SD 27 1008 -2 18 84
1978255N30280 1978 90 NA NA HOPE 1978-09-14 12:00:00 SS 33.2000 -68.7000 30 1009 hurdat_atl main 685 685 O_____________ hurdat_atl AL151978 33.2000 -68.7000 SD 30 1009 -2 20 85
1978255N30280 1978 90 NA NA HOPE 1978-09-14 15:00:00 SS 33.2967 -67.3984 main 790 790 P_____________ AL151978 33.2967 -67.3984 SD 30 1008 -2 21 87
1978255N30280 1978 90 NA NA HOPE 1978-09-14 18:00:00 SS 33.3000 -66.2000 30 hurdat_atl main 893 893 I_____________ hurdat_atl AL151978 33.3000 -66.2000 SD 30 1008 -2 16 94
1978255N30280 1978 90 NA NA HOPE 1978-09-14 21:00:00 SS 33.1720 -65.4635 main 958 958 P_____________ AL151978 33.1720 -65.4635 SD 32 1008 -2 12 109
1978255N30280 1978 90 NA NA HOPE 1978-09-15 00:00:00 SS 32.9000 -64.8000 35 1008 hurdat_atl main 1031 1031 O_____________ hurdat_atl AL151978 32.9000 -64.8000 SS 35 1008 -2 16 117
1978255N30280 1978 90 NA NA HOPE 1978-09-15 03:00:00 SS 32.4520 -63.7447 main 1143 1143 P_____________ AL151978 32.4520 -63.7447 SS 35 1007 -2 19 118
1978255N30280 1978 90 NA NA HOPE 1978-09-15 06:00:00 SS 32.0000 -62.8000 35 hurdat_atl main 1242 1242 I_____________ hurdat_atl AL151978 32.0000 -62.8000 SS 35 1006 -2 14 120
1978255N30280 1978 90 NA NA HOPE 1978-09-15 09:00:00 SS 31.7685 -62.3620 main 1286 1286 P_____________ AL151978 31.7685 -62.3620 SS 35 1005 -2 7 124
1978255N30280 1978 90 NA NA HOPE 1978-09-15 12:00:00 SS 31.6000 -62.1000 35 1005 hurdat_atl main 1321 1321 O_____________ hurdat_atl AL151978 31.6000 -62.1000 SS 35 1005 -2 7 129
1978255N30280 1978 90 NA NA HOPE 1978-09-15 15:00:00 SS 31.3273 -61.7222 main 1369 1369 P_____________ AL151978 31.3273 -61.7222 SS 35 1004 -2 8 126
1978255N30280 1978 90 NA NA HOPE 1978-09-15 18:00:00 SS 31.1000 -61.3000 35 hurdat_atl main 1411 1411 I_____________ hurdat_atl AL151978 31.1000 -61.3000 SS 35 1003 -2 8 112
1978255N30280 1978 90 NA NA HOPE 1978-09-15 21:00:00 SS 31.0124 -60.8228 main 1445 1445 P_____________ AL151978 31.0124 -60.8228 SS 35 1002 -2 9 97
1978255N30280 1978 90 NA NA HOPE 1978-09-16 00:00:00 SS 31.0000 -60.3000 35 1002 hurdat_atl main 1459 1459 O_____________ hurdat_atl AL151978 31.0000 -60.3000 SS 35 1002 -2 9 92
1978255N30280 1978 90 NA NA HOPE 1978-09-16 03:00:00 SS 30.9774 -59.7574 main 1473 1473 P_____________ AL151978 30.9774 -59.7574 SS 35 -2 9 90
1978255N30280 1978 90 NA NA HOPE 1978-09-16 06:00:00 SS 31.0000 -59.2000 35 hurdat_atl main 1491 1491 O_____________ hurdat_atl AL151978 31.0000 -59.2000 SS 35 -2 10 85
1978255N30280 1978 90 NA NA HOPE 1978-09-16 09:00:00 SS 31.0624 -58.6349 main 1500 1500 P_____________ AL151978 31.0624 -58.6349 SS 35 -2 10 78
1978255N30280 1978 90 NA NA HOPE 1978-09-16 12:00:00 SS 31.2000 -58.1000 35 hurdat_atl main 1508 1499 O_____________ hurdat_atl AL151978 31.2000 -58.1000 SS 35 -2 9 67
1978255N30280 1978 90 NA NA HOPE 1978-09-16 15:00:00 SS 31.4119 -57.6571 main 1502 1488 P_____________ AL151978 31.4119 -57.6571 SS 35 -2 9 57
1978255N30280 1978 90 NA NA HOPE 1978-09-16 18:00:00 SS 31.7000 -57.2000 35 hurdat_atl main 1492 1479 O_____________ hurdat_atl AL151978 31.7000 -57.2000 SS 35 -2 11 54
1978255N30280 1978 90 NA NA HOPE 1978-09-16 21:00:00 SS 32.0425 -56.6227 main 1488 1472 P_____________ AL151978 32.0425 -56.6227 SS 35 -2 12 55
1978255N30280 1978 90 NA NA HOPE 1978-09-17 00:00:00 SS 32.4000 -56.0000 35 hurdat_atl main 1477 1471 O_____________ hurdat_atl AL151978 32.4000 -56.0000 SS 35 -2 12 58
1978255N30280 1978 90 NA NA HOPE 1978-09-17 03:00:00 SS 32.6920 -55.4139 main 1474 1457 P_____________ AL151978 32.6920 -55.4139 SS 37 -2 12 59
1978255N30280 1978 90 NA NA HOPE 1978-09-17 06:00:00 TS 33.0000 -54.8000 40 1000 hurdat_atl main 1461 1446 O_____________ hurdat_atl AL151978 33.0000 -54.8000 TS 40 1000 0 13 58
1978255N30280 1978 90 NA NA HOPE 1978-09-17 09:00:00 TS 33.3546 -54.1288 main 1442 1424 P_____________ AL151978 33.3546 -54.1288 TS 40 999 0 14 56
1978255N30280 1978 90 NA NA HOPE 1978-09-17 12:00:00 TS 33.8000 -53.4000 40 hurdat_atl main 1424 1369 I_____________ hurdat_atl AL151978 33.8000 -53.4000 TS 40 999 0 16 50
1978255N30280 1978 90 NA NA HOPE 1978-09-17 15:00:00 TS 34.3843 -52.6374 main 1358 1295 P_____________ AL151978 34.3843 -52.6374 TS 42 998 0 18 48
1978255N30280 1978 90 NA NA HOPE 1978-09-17 18:00:00 TS 35.0000 -51.8000 45 998 hurdat_atl main 1295 1248 O_____________ hurdat_atl AL151978 35.0000 -51.8000 TS 45 998 0 18 52
1978255N30280 1978 90 NA NA HOPE 1978-09-17 21:00:00 TS 35.5144 -50.8860 main 1249 1208 P_____________ AL151978 35.5144 -50.8860 TS 47 997 0 18 57
1978255N30280 1978 90 NA NA HOPE 1978-09-18 00:00:00 TS 36.0000 -49.9000 50 hurdat_atl main 1210 1175 I_____________ hurdat_atl AL151978 36.0000 -49.9000 TS 50 996 0 19 59
1978255N30280 1978 90 NA NA HOPE 1978-09-18 03:00:00 TS 36.4984 -48.9006 main 1178 1153 P_____________ AL151978 36.4984 -48.9006 TS 50 995 0 20 59
1978255N30280 1978 90 NA NA HOPE 1978-09-18 06:00:00 TS 37.0000 -47.8000 50 995 hurdat_atl main 1156 1146 O_____________ hurdat_atl AL151978 37.0000 -47.8000 TS 50 995 0 22 63
1978255N30280 1978 90 NA NA HOPE 1978-09-18 09:00:00 TS 37.4932 -46.5067 main 1151 1147 P_____________ AL151978 37.4932 -46.5067 TS 50 993 0 23 64
1978255N30280 1978 90 NA NA HOPE 1978-09-18 12:00:00 TS 38.0000 -45.2000 50 hurdat_atl main 1158 1153 I_____________ hurdat_atl AL151978 38.0000 -45.2000 TS 50 992 0 22 61
1978255N30280 1978 90 NA NA HOPE 1978-09-18 15:00:00 TS 38.5474 -44.0904 main 1165 1158 P_____________ AL151978 38.5474 -44.0904 TS 52 991 0 20 57
1978255N30280 1978 90 NA NA HOPE 1978-09-18 18:00:00 TS 39.1000 -43.0000 55 990 hurdat_atl main 1173 1171 O_____________ hurdat_atl AL151978 39.1000 -43.0000 TS 55 990 0 21 60
1978255N30280 1978 90 NA NA HOPE 1978-09-18 21:00:00 TS 39.6005 -41.7338 main 1210 1209 P_____________ AL151978 39.6005 -41.7338 TS 55 0 22 63
1978255N30280 1978 90 NA NA HOPE 1978-09-19 00:00:00 TS 40.1000 -40.5000 55 hurdat_atl main 1248 1248 O_____________ hurdat_atl AL151978 40.1000 -40.5000 TS 55 0 20 59
1978255N30280 1978 90 NA NA HOPE 1978-09-19 03:00:00 TS 40.6256 -39.4597 main 1279 1279 P_____________ AL151978 40.6256 -39.4597 TS 55 0 19 54
1978255N30280 1978 90 NA NA HOPE 1978-09-19 06:00:00 TS 41.2000 -38.5000 55 hurdat_atl main 1309 1309 O_____________ hurdat_atl AL151978 41.2000 -38.5000 TS 55 0 19 52
1978255N30280 1978 90 NA NA HOPE 1978-09-19 09:00:00 TS 41.8200 -37.4618 main 1344 1344 P_____________ AL151978 41.8200 -37.4618 TS 55 0 20 49
1978255N30280 1978 90 NA NA HOPE 1978-09-19 12:00:00 TS 42.5000 -36.5000 55 987 hurdat_atl main 1374 1374 O_____________ hurdat_atl AL151978 42.5000 -36.5000 TS 55 987 0 19 42
1978255N30280 1978 90 NA NA HOPE 1978-09-19 15:00:00 TS 43.2329 -35.7461 main 1395 1391 P_____________ AL151978 43.2329 -35.7461 TS 55 987 0 19 36
1978255N30280 1978 90 NA NA HOPE 1978-09-19 18:00:00 TS 44.0000 -35.0000 55 hurdat_atl main 1411 1411 I_____________ hurdat_atl AL151978 44.0000 -35.0000 TS 55 988 0 19 40
1978255N30280 1978 90 NA NA HOPE 1978-09-19 21:00:00 TS 44.6580 -34.1015 main 1450 1450 P_____________ AL151978 44.6580 -34.1015 TS 55 989 0 21 43
1978255N30280 1978 90 NA NA HOPE 1978-09-20 00:00:00 TS 45.5000 -33.0000 55 990 hurdat_atl main 1506 1506 O_____________ hurdat_atl AL151978 45.5000 -33.0000 TS 55 990 0 28 43
1978255N30280 1978 90 NA NA HOPE 1978-09-20 03:00:00 TS 46.7211 -31.4041 main 1595 1455 P_____________ AL151978 46.7211 -31.4041 TS 52 0 34 37
1978255N30280 1978 90 NA NA HOPE 1978-09-20 06:00:00 TS 48.2000 -30.0000 50 hurdat_atl main 1443 1344 O_____________ hurdat_atl AL151978 48.2000 -30.0000 TS 50 0 34 22
1978255N30280 1978 90 NA NA HOPE 1978-09-20 09:00:00 TS 49.8613 -29.5121 main 1341 1277 P_____________ AL151978 49.8613 -29.5121 TS 50 0 33 6
1978255N30280 1978 90 NA NA HOPE 1978-09-20 12:00:00 TS 51.5000 -29.5000 50 hurdat_atl main 1268 1168 O_____________ hurdat_atl AL151978 51.5000 -29.5000 TS 50 0 29 1
1978255N30280 1978 90 NA NA HOPE 1978-09-20 15:00:00 TS 52.7722 -29.4249 main 1159 1065 P_____________ AL151978 52.7722 -29.4249 TS 50 0 25 1
1978255N30280 1978 90 NA NA HOPE 1978-09-20 18:00:00 TS 54.0000 -29.5000 50 hurdat_atl main 1057 933 O_____________ hurdat_atl AL151978 54.0000 -29.5000 TS 50 0 27 354
1978255N30280 1978 90 NA NA HOPE 1978-09-20 21:00:00 TS 55.4994 -29.8773 main 926 833 P_____________ AL151978 55.4994 -29.8773 TS 50 0 30 355
1978255N30280 1978 90 NA NA HOPE 1978-09-21 00:00:00 TS 57.0000 -30.0000 50 995 hurdat_atl main 827 707 O_____________ hurdat_atl AL151978 57.0000 -30.0000 TS 50 995 0 29 5
1978255N30280 1978 90 NA NA HOPE 1978-09-21 03:00:00 TS 58.3563 -29.4137 main 695 562 P_____________ AL151978 58.3563 -29.4137 TS 47 0 27 23
1978255N30280 1978 90 NA NA HOPE 1978-09-21 06:00:00 TS 59.5000 -28.0000 45 hurdat_atl main 550 420 O_____________ hurdat_atl AL151978 59.5000 -28.0000 TS 45 0 27 43
1978255N30280 1978 90 NA NA HOPE 1978-09-21 09:00:00 TS 60.3532 -25.7556 main 408 310 P_____________ AL151978 60.3532 -25.7556 TS 45 0 29 59
1978255N30280 1978 90 NA NA HOPE 1978-09-21 12:00:00 ET 61.0000 -23.0000 45 hurdat_atl main 310 O_____________ hurdat_atl AL151978 61.0000 -23.0000 EX 45 -4 30 64

About IBTrACS Database

This database is a web-friendly format of International Best Track Archive for Climate Stewardship (IBTrACS), a global best track data archive curated by NOAA dating back to 1842.

Updated: 2021-10-21